sensor_id;sensor_type;location;lat;lon;timestamp;pressure;altitude;pressure_sealevel;temperature;humidity
76794;BME280;65745;50.278;18.192;2023-02-13T00:00:57;101784.88;;;2.29;80.10
76794;BME280;65745;50.278;18.192;2023-02-13T00:03:30;101787.84;;;2.30;80.28
76794;BME280;65745;50.278;18.192;2023-02-13T00:06:02;101788.20;;;2.34;80.30
76794;BME280;65745;50.278;18.192;2023-02-13T00:08:36;101786.67;;;2.28;80.75
76794;BME280;65745;50.278;18.192;2023-02-13T00:11:08;101785.20;;;2.34;80.54
76794;BME280;65745;50.278;18.192;2023-02-13T00:13:41;101780.82;;;2.35;80.49
76794;BME280;65745;50.278;18.192;2023-02-13T00:16:13;101776.71;;;2.43;79.85
76794;BME280;65745;50.278;18.192;2023-02-13T00:18:46;101770.97;;;2.40;80.30
76794;BME280;65745;50.278;18.192;2023-02-13T00:21:18;101776.87;;;2.35;80.22
76794;BME280;65745;50.278;18.192;2023-02-13T00:23:51;101770.75;;;2.35;80.56
76794;BME280;65745;50.278;18.192;2023-02-13T00:26:23;101778.92;;;2.47;80.51
76794;BME280;65745;50.278;18.192;2023-02-13T00:28:57;101781.39;;;2.63;80.13
76794;BME280;65745;50.278;18.192;2023-02-13T00:31:29;101783.83;;;2.70;80.19
76794;BME280;65745;50.278;18.192;2023-02-13T00:34:02;101784.78;;;2.77;79.84
76794;BME280;65745;50.278;18.192;2023-02-13T00:36:34;101789.19;;;2.72;79.65
76794;BME280;65745;50.278;18.192;2023-02-13T00:39:07;101786.63;;;2.68;79.83
76794;BME280;65745;50.278;18.192;2023-02-13T00:41:39;101786.66;;;2.71;79.76
76794;BME280;65745;50.278;18.192;2023-02-13T00:44:12;101782.41;;;2.77;79.47
76794;BME280;65745;50.278;18.192;2023-02-13T00:46:44;101777.84;;;2.75;79.52
76794;BME280;65745;50.278;18.192;2023-02-13T00:49:17;101774.89;;;2.85;79.73
76794;BME280;65745;50.278;18.192;2023-02-13T00:51:49;101773.30;;;2.95;79.65
76794;BME280;65745;50.278;18.192;2023-02-13T00:54:22;101771.63;;;2.99;79.58
76794;BME280;65745;50.278;18.192;2023-02-13T00:56:55;101772.96;;;2.95;79.34
76794;BME280;65745;50.278;18.192;2023-02-13T00:59:28;101770.98;;;2.91;79.34
76794;BME280;65745;50.278;18.192;2023-02-13T01:02:00;101769.41;;;2.87;79.57
76794;BME280;65745;50.278;18.192;2023-02-13T01:04:34;101770.15;;;2.83;79.45
76794;BME280;65745;50.278;18.192;2023-02-13T01:07:07;101765.92;;;2.82;79.69
76794;BME280;65745;50.278;18.192;2023-02-13T01:09:40;101769.68;;;2.82;79.98
76794;BME280;65745;50.278;18.192;2023-02-13T01:12:12;101766.36;;;2.85;80.05
76794;BME280;65745;50.278;18.192;2023-02-13T01:14:45;101771.88;;;2.90;80.31
76794;BME280;65745;50.278;18.192;2023-02-13T01:17:18;101768.23;;;2.89;80.36
76794;BME280;65745;50.278;18.192;2023-02-13T01:19:51;101766.39;;;2.89;80.29
76794;BME280;65745;50.278;18.192;2023-02-13T01:22:23;101759.91;;;2.87;79.97
76794;BME280;65745;50.278;18.192;2023-02-13T01:24:56;101758.27;;;2.90;80.01
76794;BME280;65745;50.278;18.192;2023-02-13T01:27:31;101757.02;;;2.98;80.02
76794;BME280;65745;50.278;18.192;2023-02-13T01:30:05;101757.69;;;3.02;80.33
76794;BME280;65745;50.278;18.192;2023-02-13T01:32:42;101761.02;;;3.05;80.14
76794;BME280;65745;50.278;18.192;2023-02-13T01:35:16;101758.98;;;3.10;80.15
76794;BME280;65745;50.278;18.192;2023-02-13T01:37:48;101755.80;;;3.15;79.91
76794;BME280;65745;50.278;18.192;2023-02-13T01:40:21;101754.10;;;3.12;80.00
76794;BME280;65745;50.278;18.192;2023-02-13T01:42:54;101750.36;;;3.10;80.15
76794;BME280;65745;50.278;18.192;2023-02-13T01:45:28;101750.04;;;3.11;80.47
76794;BME280;65745;50.278;18.192;2023-02-13T01:48:03;101749.09;;;3.18;80.53
76794;BME280;65745;50.278;18.192;2023-02-13T01:50:41;101747.62;;;3.27;80.37
76794;BME280;65745;50.278;18.192;2023-02-13T01:53:20;101743.76;;;3.28;80.47
76794;BME280;65745;50.278;18.192;2023-02-13T01:55:59;101744.00;;;3.38;80.38
76794;BME280;65745;50.278;18.192;2023-02-13T01:58:34;101744.00;;;3.48;79.88
76794;BME280;65745;50.278;18.192;2023-02-13T02:01:10;101743.46;;;3.48;79.71
76794;BME280;65745;50.278;18.192;2023-02-13T02:03:46;101738.79;;;3.45;79.88
76794;BME280;65745;50.278;18.192;2023-02-13T02:06:24;101742.26;;;3.44;80.01
76794;BME280;65745;50.278;18.192;2023-02-13T02:09:00;101740.27;;;3.42;80.01
76794;BME280;65745;50.278;18.192;2023-02-13T02:11:38;101735.70;;;3.49;80.07
76794;BME280;65745;50.278;18.192;2023-02-13T02:14:14;101732.64;;;3.47;80.11
76794;BME280;65745;50.278;18.192;2023-02-13T02:16:47;101731.36;;;3.46;80.06
76794;BME280;65745;50.278;18.192;2023-02-13T02:19:28;101728.30;;;3.46;80.12
76794;BME280;65745;50.278;18.192;2023-02-13T02:22:29;101720.23;;;3.41;80.01
76794;BME280;65745;50.278;18.192;2023-02-13T02:25:30;101717.98;;;3.45;79.82
76794;BME280;65745;50.278;18.192;2023-02-13T02:28:15;101719.24;;;3.43;79.68
76794;BME280;65745;50.278;18.192;2023-02-13T02:34:11;101717.36;;;3.41;80.35
76794;BME280;65745;50.278;18.192;2023-02-13T02:37:01;101721.92;;;3.40;80.34
76794;BME280;65745;50.278;18.192;2023-02-13T02:39:45;101722.76;;;3.40;80.59
76794;BME280;65745;50.278;18.192;2023-02-13T02:42:27;101724.23;;;3.42;80.62
76794;BME280;65745;50.278;18.192;2023-02-13T02:45:07;101719.86;;;3.47;80.39
76794;BME280;65745;50.278;18.192;2023-02-13T02:47:51;101723.80;;;3.58;79.94
76794;BME280;65745;50.278;18.192;2023-02-13T02:50:50;101727.64;;;3.64;79.66
76794;BME280;65745;50.278;18.192;2023-02-13T02:53:32;101724.70;;;3.65;79.34
76794;BME280;65745;50.278;18.192;2023-02-13T02:56:15;101726.52;;;3.62;79.13
76794;BME280;65745;50.278;18.192;2023-02-13T02:58:53;101722.91;;;3.45;79.49
76794;BME280;65745;50.278;18.192;2023-02-13T03:01:45;101725.45;;;3.31;80.23
76794;BME280;65745;50.278;18.192;2023-02-13T03:04:39;101728.43;;;3.32;80.22
76794;BME280;65745;50.278;18.192;2023-02-13T03:07:29;101728.44;;;3.34;80.71
76794;BME280;65745;50.278;18.192;2023-02-13T03:10:05;101731.51;;;3.35;81.02
76794;BME280;65745;50.278;18.192;2023-02-13T03:12:55;101732.11;;;3.42;80.75
76794;BME280;65745;50.278;18.192;2023-02-13T03:15:53;101729.86;;;3.53;80.12
76794;BME280;65745;50.278;18.192;2023-02-13T03:18:49;101724.92;;;3.31;80.60
76794;BME280;65745;50.278;18.192;2023-02-13T03:21:48;101721.48;;;3.28;80.31
76794;BME280;65745;50.278;18.192;2023-02-13T03:24:47;101721.66;;;3.26;80.14
76794;BME280;65745;50.278;18.192;2023-02-13T03:27:33;101722.21;;;3.20;80.05
76794;BME280;65745;50.278;18.192;2023-02-13T03:30:32;101722.41;;;3.27;79.81
76794;BME280;65745;50.278;18.192;2023-02-13T03:33:17;101722.28;;;3.32;80.04
76794;BME280;65745;50.278;18.192;2023-02-13T03:36:01;101723.98;;;3.40;79.96
76794;BME280;65745;50.278;18.192;2023-02-13T03:38:56;101719.08;;;3.33;80.61
76794;BME280;65745;50.278;18.192;2023-02-13T03:41:37;101722.92;;;3.31;80.55
76794;BME280;65745;50.278;18.192;2023-02-13T03:44:17;101724.67;;;3.21;80.72
76794;BME280;65745;50.278;18.192;2023-02-13T03:46:53;101724.79;;;3.12;80.97
76794;BME280;65745;50.278;18.192;2023-02-13T03:49:32;101723.01;;;3.11;80.85
76794;BME280;65745;50.278;18.192;2023-02-13T03:52:28;101724.69;;;3.09;80.39
76794;BME280;65745;50.278;18.192;2023-02-13T03:55:06;101722.86;;;3.16;80.34
76794;BME280;65745;50.278;18.192;2023-02-13T03:58:01;101717.40;;;3.20;80.02
76794;BME280;65745;50.278;18.192;2023-02-13T04:00:54;101719.88;;;3.17;80.21
76794;BME280;65745;50.278;18.192;2023-02-13T04:03:32;101716.95;;;3.23;80.66
76794;BME280;65745;50.278;18.192;2023-02-13T04:06:10;101718.14;;;3.14;80.71
76794;BME280;65745;50.278;18.192;2023-02-13T04:08:44;101717.17;;;3.17;80.91
76794;BME280;65745;50.278;18.192;2023-02-13T04:11:20;101713.65;;;3.15;80.68
76794;BME280;65745;50.278;18.192;2023-02-13T04:13:58;101718.42;;;3.22;80.36
76794;BME280;65745;50.278;18.192;2023-02-13T04:16:34;101716.42;;;3.31;80.01
76794;BME280;65745;50.278;18.192;2023-02-13T04:19:08;101715.86;;;3.37;79.56
76794;BME280;65745;50.278;18.192;2023-02-13T04:21:42;101719.65;;;3.42;79.61
76794;BME280;65745;50.278;18.192;2023-02-13T04:24:14;101722.34;;;3.46;79.59
76794;BME280;65745;50.278;18.192;2023-02-13T04:26:47;101719.13;;;3.51;79.47
76794;BME280;65745;50.278;18.192;2023-02-13T04:29:19;101717.62;;;3.42;79.68
76794;BME280;65745;50.278;18.192;2023-02-13T04:31:52;101712.85;;;3.36;79.95
76794;BME280;65745;50.278;18.192;2023-02-13T04:34:25;101710.26;;;3.18;80.51
76794;BME280;65745;50.278;18.192;2023-02-13T04:36:57;101708.45;;;3.12;80.33
76794;BME280;65745;50.278;18.192;2023-02-13T04:39:29;101711.48;;;3.08;80.15
76794;BME280;65745;50.278;18.192;2023-02-13T04:42:01;101704.57;;;2.99;80.28
76794;BME280;65745;50.278;18.192;2023-02-13T04:44:34;101707.10;;;2.97;80.38
76794;BME280;65745;50.278;18.192;2023-02-13T04:47:06;101706.29;;;3.02;80.75
76794;BME280;65745;50.278;18.192;2023-02-13T04:49:38;101706.77;;;3.10;80.59
76794;BME280;65745;50.278;18.192;2023-02-13T04:52:10;101711.13;;;3.20;80.40
76794;BME280;65745;50.278;18.192;2023-02-13T04:54:45;101710.86;;;3.21;80.47
76794;BME280;65745;50.278;18.192;2023-02-13T04:57:17;101706.80;;;3.23;80.08
76794;BME280;65745;50.278;18.192;2023-02-13T04:59:49;101704.95;;;3.20;79.61
76794;BME280;65745;50.278;18.192;2023-02-13T05:02:22;101701.39;;;3.05;79.86
76794;BME280;65745;50.278;18.192;2023-02-13T05:04:54;101702.95;;;2.92;79.76
76794;BME280;65745;50.278;18.192;2023-02-13T05:07:26;101702.46;;;2.73;79.93
76794;BME280;65745;50.278;18.192;2023-02-13T05:09:59;101697.43;;;2.68;79.83
76794;BME280;65745;50.278;18.192;2023-02-13T05:12:31;101699.59;;;2.61;80.13
76794;BME280;65745;50.278;18.192;2023-02-13T05:15:05;101702.00;;;2.59;79.99
76794;BME280;65745;50.278;18.192;2023-02-13T05:17:37;101709.54;;;2.58;80.50
76794;BME280;65745;50.278;18.192;2023-02-13T05:20:11;101710.20;;;2.53;80.70
76794;BME280;65745;50.278;18.192;2023-02-13T05:22:46;101713.42;;;2.64;80.32
76794;BME280;65745;50.278;18.192;2023-02-13T05:25:38;101706.23;;;2.72;80.04
76794;BME280;65745;50.278;18.192;2023-02-13T05:28:11;101704.98;;;2.64;79.74
76794;BME280;65745;50.278;18.192;2023-02-13T05:30:57;101702.60;;;2.58;79.77
76794;BME280;65745;50.278;18.192;2023-02-13T05:33:31;101699.95;;;2.59;79.64
76794;BME280;65745;50.278;18.192;2023-02-13T05:36:04;101701.28;;;2.58;79.51
76794;BME280;65745;50.278;18.192;2023-02-13T05:38:36;101701.31;;;2.63;79.56
76794;BME280;65745;50.278;18.192;2023-02-13T05:41:08;101700.45;;;2.61;80.16
76794;BME280;65745;50.278;18.192;2023-02-13T05:43:43;101701.38;;;2.64;80.30
76794;BME280;65745;50.278;18.192;2023-02-13T05:46:16;101702.04;;;2.72;80.29
76794;BME280;65745;50.278;18.192;2023-02-13T05:48:48;101707.11;;;2.72;79.79
76794;BME280;65745;50.278;18.192;2023-02-13T05:51:20;101705.38;;;2.78;79.63
76794;BME280;65745;50.278;18.192;2023-02-13T05:53:53;101708.48;;;2.82;79.18
76794;BME280;65745;50.278;18.192;2023-02-13T05:56:25;101707.78;;;2.72;79.24
76794;BME280;65745;50.278;18.192;2023-02-13T05:58:58;101710.71;;;2.62;79.35
76794;BME280;65745;50.278;18.192;2023-02-13T06:01:30;101710.82;;;2.52;79.95
76794;BME280;65745;50.278;18.192;2023-02-13T06:04:03;101712.20;;;2.51;80.53
76794;BME280;65745;50.278;18.192;2023-02-13T06:06:35;101712.72;;;2.67;80.28
76794;BME280;65745;50.278;18.192;2023-02-13T06:09:07;101714.20;;;2.79;79.79
76794;BME280;65745;50.278;18.192;2023-02-13T06:11:39;101711.79;;;2.81;79.49
76794;BME280;65745;50.278;18.192;2023-02-13T06:14:12;101712.69;;;2.84;79.12
76794;BME280;65745;50.278;18.192;2023-02-13T06:16:45;101711.77;;;2.85;78.97
76794;BME280;65745;50.278;18.192;2023-02-13T06:19:17;101712.15;;;2.82;79.32
76794;BME280;65745;50.278;18.192;2023-02-13T06:21:52;101717.73;;;2.81;79.09
76794;BME280;65745;50.278;18.192;2023-02-13T06:24:24;101719.58;;;2.89;79.05
76794;BME280;65745;50.278;18.192;2023-02-13T06:26:57;101715.68;;;2.98;79.35
76794;BME280;65745;50.278;18.192;2023-02-13T06:29:29;101718.64;;;3.08;79.04
76794;BME280;65745;50.278;18.192;2023-02-13T06:32:03;101724.17;;;3.17;79.40
76794;BME280;65745;50.278;18.192;2023-02-13T06:34:35;101732.20;;;3.28;79.11
76794;BME280;65745;50.278;18.192;2023-02-13T06:37:11;101729.33;;;3.35;78.64
76794;BME280;65745;50.278;18.192;2023-02-13T06:39:52;101723.88;;;3.30;79.15
76794;BME280;65745;50.278;18.192;2023-02-13T06:42:24;101723.48;;;3.28;78.89
76794;BME280;65745;50.278;18.192;2023-02-13T06:44:56;101725.38;;;3.26;79.05
76794;BME280;65745;50.278;18.192;2023-02-13T06:47:29;101728.05;;;3.21;79.00
76794;BME280;65745;50.278;18.192;2023-02-13T06:50:02;101727.44;;;3.20;79.20
76794;BME280;65745;50.278;18.192;2023-02-13T06:52:34;101734.84;;;3.33;79.22
76794;BME280;65745;50.278;18.192;2023-02-13T06:55:07;101738.02;;;3.46;79.30
76794;BME280;65745;50.278;18.192;2023-02-13T06:57:40;101724.24;;;3.35;79.29
76794;BME280;65745;50.278;18.192;2023-02-13T07:00:15;101730.80;;;3.15;80.04
76794;BME280;65745;50.278;18.192;2023-02-13T07:02:47;101727.86;;;3.21;80.00
76794;BME280;65745;50.278;18.192;2023-02-13T07:05:20;101728.50;;;3.25;79.91
76794;BME280;65745;50.278;18.192;2023-02-13T07:07:53;101726.62;;;3.33;79.62
76794;BME280;65745;50.278;18.192;2023-02-13T07:10:26;101720.74;;;3.23;80.05
76794;BME280;65745;50.278;18.192;2023-02-13T07:12:59;101729.83;;;3.20;79.87
76794;BME280;65745;50.278;18.192;2023-02-13T07:15:36;101733.67;;;3.21;79.87
76794;BME280;65745;50.278;18.192;2023-02-13T07:18:09;101736.36;;;3.27;80.07
76794;BME280;65745;50.278;18.192;2023-02-13T07:20:43;101737.50;;;3.37;79.92
76794;BME280;65745;50.278;18.192;2023-02-13T07:23:15;101733.95;;;3.35;79.91
76794;BME280;65745;50.278;18.192;2023-02-13T07:25:47;101728.50;;;3.31;79.94
76794;BME280;65745;50.278;18.192;2023-02-13T07:28:20;101730.70;;;3.31;79.52
76794;BME280;65745;50.278;18.192;2023-02-13T07:30:53;101732.89;;;3.30;79.40
76794;BME280;65745;50.278;18.192;2023-02-13T07:33:32;101734.38;;;3.30;79.08
76794;BME280;65745;50.278;18.192;2023-02-13T07:36:18;101737.90;;;3.19;80.39
76794;BME280;65745;50.278;18.192;2023-02-13T07:38:51;101738.60;;;3.14;80.39
76794;BME280;65745;50.278;18.192;2023-02-13T07:41:24;101737.67;;;3.09;81.27
76794;BME280;65745;50.278;18.192;2023-02-13T07:43:59;101735.73;;;3.23;81.08
76794;BME280;65745;50.278;18.192;2023-02-13T07:46:36;101733.77;;;3.31;80.91
76794;BME280;65745;50.278;18.192;2023-02-13T07:49:17;101733.75;;;3.22;81.18
76794;BME280;65745;50.278;18.192;2023-02-13T07:51:49;101733.48;;;3.25;81.09
76794;BME280;65745;50.278;18.192;2023-02-13T07:54:22;101734.33;;;3.29;81.00
76794;BME280;65745;50.278;18.192;2023-02-13T07:56:54;101730.83;;;3.37;80.43
76794;BME280;65745;50.278;18.192;2023-02-13T07:59:28;101725.08;;;3.29;80.75
76794;BME280;65745;50.278;18.192;2023-02-13T08:02:01;101724.60;;;3.35;80.75
76794;BME280;65745;50.278;18.192;2023-02-13T08:04:34;101723.80;;;3.51;80.76
76794;BME280;65745;50.278;18.192;2023-02-13T08:07:06;101721.39;;;3.56;80.89
76794;BME280;65745;50.278;18.192;2023-02-13T08:09:38;101717.09;;;3.64;80.75
76794;BME280;65745;50.278;18.192;2023-02-13T08:12:29;101720.14;;;3.66;80.36
76794;BME280;65745;50.278;18.192;2023-02-13T08:15:02;101721.14;;;3.65;80.50
76794;BME280;65745;50.278;18.192;2023-02-13T08:17:35;101725.73;;;3.74;80.15
76794;BME280;65745;50.278;18.192;2023-02-13T08:20:10;101730.39;;;3.77;80.28
76794;BME280;65745;50.278;18.192;2023-02-13T08:22:42;101732.54;;;3.76;80.46
76794;BME280;65745;50.278;18.192;2023-02-13T08:25:15;101733.77;;;3.86;80.59
76794;BME280;65745;50.278;18.192;2023-02-13T08:27:49;101737.88;;;3.82;80.57
76794;BME280;65745;50.278;18.192;2023-02-13T08:30:21;101732.12;;;3.86;80.88
76794;BME280;65745;50.278;18.192;2023-02-13T08:32:54;101727.90;;;4.01;80.48
76794;BME280;65745;50.278;18.192;2023-02-13T08:35:28;101726.54;;;4.10;80.06
76794;BME280;65745;50.278;18.192;2023-02-13T08:38:04;101727.90;;;4.14;80.00
76794;BME280;65745;50.278;18.192;2023-02-13T08:40:36;101733.15;;;4.23;79.72
76794;BME280;65745;50.278;18.192;2023-02-13T08:43:09;101736.30;;;4.26;79.75
76794;BME280;65745;50.278;18.192;2023-02-13T08:45:42;101739.56;;;4.33;79.62
76794;BME280;65745;50.278;18.192;2023-02-13T08:48:14;101741.40;;;4.46;79.56
76794;BME280;65745;50.278;18.192;2023-02-13T08:50:46;101742.14;;;4.52;80.00
76794;BME280;65745;50.278;18.192;2023-02-13T08:53:19;101743.27;;;4.60;80.05
76794;BME280;65745;50.278;18.192;2023-02-13T08:55:56;101736.14;;;4.56;79.73
76794;BME280;65745;50.278;18.192;2023-02-13T08:58:28;101731.69;;;4.33;79.86
76794;BME280;65745;50.278;18.192;2023-02-13T09:01:07;101730.63;;;4.23;80.07
76794;BME280;65745;50.278;18.192;2023-02-13T09:03:41;101731.69;;;4.17;80.50
76794;BME280;65745;50.278;18.192;2023-02-13T09:06:13;101727.41;;;4.12;80.99
76794;BME280;65745;50.278;18.192;2023-02-13T09:08:46;101729.17;;;4.17;80.92
76794;BME280;65745;50.278;18.192;2023-02-13T09:11:18;101726.95;;;4.26;81.10
76794;BME280;65745;50.278;18.192;2023-02-13T09:13:54;101728.23;;;4.23;81.32
76794;BME280;65745;50.278;18.192;2023-02-13T09:16:28;101729.92;;;4.25;81.30
76794;BME280;65745;50.278;18.192;2023-02-13T09:19:00;101730.07;;;4.18;81.41
76794;BME280;65745;50.278;18.192;2023-02-13T09:21:34;101732.16;;;4.19;81.09
76794;BME280;65745;50.278;18.192;2023-02-13T09:24:09;101736.80;;;4.19;81.46
76794;BME280;65745;50.278;18.192;2023-02-13T09:26:42;101732.22;;;4.15;81.82
76794;BME280;65745;50.278;18.192;2023-02-13T09:29:14;101733.27;;;4.15;82.06
76794;BME280;65745;50.278;18.192;2023-02-13T09:31:47;101733.91;;;4.19;81.91
76794;BME280;65745;50.278;18.192;2023-02-13T09:34:20;101738.21;;;4.31;81.89
76794;BME280;65745;50.278;18.192;2023-02-13T09:36:59;101735.48;;;4.49;81.14
76794;BME280;65745;50.278;18.192;2023-02-13T09:39:38;101733.06;;;4.51;81.39
76794;BME280;65745;50.278;18.192;2023-02-13T09:42:18;101734.02;;;4.53;81.73
76794;BME280;65745;50.278;18.192;2023-02-13T09:44:56;101733.58;;;4.72;81.33
76794;BME280;65745;50.278;18.192;2023-02-13T09:47:38;101731.00;;;4.96;81.35
76794;BME280;65745;50.278;18.192;2023-02-13T09:50:21;101730.80;;;5.29;80.68
76794;BME280;65745;50.278;18.192;2023-02-13T09:53:03;101730.81;;;5.63;80.40
76794;BME280;65745;50.278;18.192;2023-02-13T09:55:48;101728.59;;;5.87;79.87
76794;BME280;65745;50.278;18.192;2023-02-13T09:58:37;101731.48;;;5.97;79.98
76794;BME280;65745;50.278;18.192;2023-02-13T10:01:21;101728.32;;;5.88;80.12
76794;BME280;65745;50.278;18.192;2023-02-13T10:04:11;101722.15;;;5.96;80.11
76794;BME280;65745;50.278;18.192;2023-02-13T10:06:52;101712.90;;;6.06;79.95
76794;BME280;65745;50.278;18.192;2023-02-13T10:09:32;101704.48;;;6.13;80.38
76794;BME280;65745;50.278;18.192;2023-02-13T10:12:23;101709.92;;;6.30;80.25
76794;BME280;65745;50.278;18.192;2023-02-13T10:15:11;101714.98;;;6.53;80.27
76794;BME280;65745;50.278;18.192;2023-02-13T10:17:49;101710.52;;;6.68;79.86
76794;BME280;65745;50.278;18.192;2023-02-13T10:20:30;101712.54;;;6.81;79.49
76794;BME280;65745;50.278;18.192;2023-02-13T10:23:16;101708.13;;;6.95;78.91
76794;BME280;65745;50.278;18.192;2023-02-13T10:25:54;101711.60;;;7.06;78.84
76794;BME280;65745;50.278;18.192;2023-02-13T10:28:40;101714.02;;;7.09;78.82
76794;BME280;65745;50.278;18.192;2023-02-13T10:31:18;101711.09;;;7.12;78.62
76794;BME280;65745;50.278;18.192;2023-02-13T10:33:59;101705.16;;;7.02;78.62
76794;BME280;65745;50.278;18.192;2023-02-13T10:36:35;101694.19;;;6.94;78.62
76794;BME280;65745;50.278;18.192;2023-02-13T10:39:22;101691.27;;;6.99;78.50
76794;BME280;65745;50.278;18.192;2023-02-13T10:42:04;101690.08;;;6.94;78.50
76794;BME280;65745;50.278;18.192;2023-02-13T10:44:46;101682.33;;;6.88;78.24
76794;BME280;65745;50.278;18.192;2023-02-13T10:47:37;101688.41;;;6.83;78.52
76794;BME280;65745;50.278;18.192;2023-02-13T10:50:19;101688.80;;;6.79;78.62
76794;BME280;65745;50.278;18.192;2023-02-13T10:53:13;101682.77;;;6.78;78.74
76794;BME280;65745;50.278;18.192;2023-02-13T10:56:17;101683.41;;;6.78;78.61
76794;BME280;65745;50.278;18.192;2023-02-13T10:59:10;101679.83;;;6.65;78.83
76794;BME280;65745;50.278;18.192;2023-02-13T11:01:58;101682.42;;;6.57;78.93
76794;BME280;65745;50.278;18.192;2023-02-13T11:04:45;101677.85;;;6.48;79.19
76794;BME280;65745;50.278;18.192;2023-02-13T11:07:25;101672.69;;;6.45;79.35
76794;BME280;65745;50.278;18.192;2023-02-13T11:10:05;101679.34;;;6.36;79.79
76794;BME280;65745;50.278;18.192;2023-02-13T11:12:55;101676.80;;;6.34;79.83
76794;BME280;65745;50.278;18.192;2023-02-13T11:15:33;101670.70;;;6.29;80.02
76794;BME280;65745;50.278;18.192;2023-02-13T11:18:17;101672.56;;;6.29;80.42
76794;BME280;65745;50.278;18.192;2023-02-13T11:21:00;101670.62;;;6.31;79.97
76794;BME280;65745;50.278;18.192;2023-02-13T11:23:42;101669.48;;;6.29;79.50
76794;BME280;65745;50.278;18.192;2023-02-13T11:26:22;101665.75;;;6.27;79.32
76794;BME280;65745;50.278;18.192;2023-02-13T11:29:00;101669.31;;;6.19;80.21
76794;BME280;65745;50.278;18.192;2023-02-13T11:31:36;101665.95;;;6.23;80.40
76794;BME280;65745;50.278;18.192;2023-02-13T11:34:32;101663.41;;;6.28;80.76
76794;BME280;65745;50.278;18.192;2023-02-13T11:37:21;101655.48;;;6.35;80.83
76794;BME280;65745;50.278;18.192;2023-02-13T11:39:55;101658.09;;;6.41;80.47
76794;BME280;65745;50.278;18.192;2023-02-13T11:42:32;101659.56;;;6.48;80.24
76794;BME280;65745;50.278;18.192;2023-02-13T11:45:19;101653.59;;;6.59;80.07
76794;BME280;65745;50.278;18.192;2023-02-13T11:47:55;101653.08;;;6.67;79.92
76794;BME280;65745;50.278;18.192;2023-02-13T11:50:31;101648.63;;;6.70;80.05
76794;BME280;65745;50.278;18.192;2023-02-13T11:53:15;101647.83;;;6.70;80.68
76794;BME280;65745;50.278;18.192;2023-02-13T11:56:04;101646.14;;;6.73;80.75
76794;BME280;65745;50.278;18.192;2023-02-13T11:58:37;101644.75;;;6.76;81.05
76794;BME280;65745;50.278;18.192;2023-02-13T12:01:23;101640.45;;;6.78;81.02
76794;BME280;65745;50.278;18.192;2023-02-13T12:04:03;101636.00;;;6.81;80.73
76794;BME280;65745;50.278;18.192;2023-02-13T12:06:36;101631.34;;;6.86;80.33
76794;BME280;65745;50.278;18.192;2023-02-13T12:09:15;101631.84;;;6.91;80.23
76794;BME280;65745;50.278;18.192;2023-02-13T12:11:49;101630.80;;;7.02;80.35
76794;BME280;65745;50.278;18.192;2023-02-13T12:14:31;101626.94;;;7.14;80.34
76794;BME280;65745;50.278;18.192;2023-02-13T12:17:08;101625.50;;;7.39;80.81
76794;BME280;65745;50.278;18.192;2023-02-13T12:20:01;101620.11;;;7.60;80.26
76794;BME280;65745;50.278;18.192;2023-02-13T12:22:41;101621.15;;;7.69;79.86
76794;BME280;65745;50.278;18.192;2023-02-13T12:25:26;101619.70;;;7.68;79.68
76794;BME280;65745;50.278;18.192;2023-02-13T12:28:15;101618.30;;;7.64;79.30
76794;BME280;65745;50.278;18.192;2023-02-13T12:31:04;101617.63;;;7.62;79.35
76794;BME280;65745;50.278;18.192;2023-02-13T12:34:22;101615.70;;;7.63;79.45
76794;BME280;65745;50.278;18.192;2023-02-13T12:37:17;101614.67;;;7.67;79.70
76794;BME280;65745;50.278;18.192;2023-02-13T12:40:01;101611.68;;;7.60;79.66
76794;BME280;65745;50.278;18.192;2023-02-13T12:42:49;101611.86;;;7.51;79.68
76794;BME280;65745;50.278;18.192;2023-02-13T12:45:44;101614.10;;;7.40;79.63
76794;BME280;65745;50.278;18.192;2023-02-13T12:48:32;101612.36;;;7.37;79.60
76794;BME280;65745;50.278;18.192;2023-02-13T12:51:27;101605.63;;;7.42;79.69
76794;BME280;65745;50.278;18.192;2023-02-13T12:54:31;101610.25;;;7.50;79.46
76794;BME280;65745;50.278;18.192;2023-02-13T12:57:18;101609.50;;;7.52;79.44
76794;BME280;65745;50.278;18.192;2023-02-13T13:00:08;101610.59;;;7.47;80.03
76794;BME280;65745;50.278;18.192;2023-02-13T13:03:07;101610.95;;;7.44;80.04
76794;BME280;65745;50.278;18.192;2023-02-13T13:05:54;101611.26;;;7.41;80.09
76794;BME280;65745;50.278;18.192;2023-02-13T13:09:06;101616.79;;;7.36;79.74
76794;BME280;65745;50.278;18.192;2023-02-13T13:14:52;101618.33;;;7.28;79.42
76794;BME280;65745;50.278;18.192;2023-02-13T13:17:36;101617.95;;;7.27;79.44
76794;BME280;65745;50.278;18.192;2023-02-13T13:20:32;101609.34;;;7.32;79.28
76794;BME280;65745;50.278;18.192;2023-02-13T13:23:12;101609.27;;;7.42;79.23
76794;BME280;65745;50.278;18.192;2023-02-13T13:25:53;101613.05;;;7.45;79.25
76794;BME280;65745;50.278;18.192;2023-02-13T13:28:31;101619.34;;;7.50;79.42
76794;BME280;65745;50.278;18.192;2023-02-13T13:31:06;101621.63;;;7.45;79.11
76794;BME280;65745;50.278;18.192;2023-02-13T13:33:41;101630.91;;;7.29;78.54
76794;BME280;65745;50.278;18.192;2023-02-13T13:36:22;101629.04;;;7.26;78.75
76794;BME280;65745;50.278;18.192;2023-02-13T13:39:03;101628.38;;;7.15;78.26
76794;BME280;65745;50.278;18.192;2023-02-13T13:41:48;101636.64;;;7.19;78.44
76794;BME280;65745;50.278;18.192;2023-02-13T13:44:44;101641.00;;;7.14;78.19
76794;BME280;65745;50.278;18.192;2023-02-13T13:47:28;101642.00;;;7.05;78.40
76794;BME280;65745;50.278;18.192;2023-02-13T13:50:18;101643.81;;;7.05;78.28
76794;BME280;65745;50.278;18.192;2023-02-13T13:53:10;101644.15;;;7.02;78.24
76794;BME280;65745;50.278;18.192;2023-02-13T13:56:04;101640.83;;;6.93;78.25